sensor_id;sensor_type;location;lat;lon;timestamp;P1;durP1;ratioP1;P2;durP2;ratioP2
6566;SDS011;3317;43.994;22.878;2023-02-13T00:01:17;51.30;;;26.70;;
6566;SDS011;3317;43.994;22.878;2023-02-13T00:03:44;50.20;;;28.00;;
6566;SDS011;3317;43.994;22.878;2023-02-13T00:06:11;59.80;;;32.43;;
6566;SDS011;3317;43.994;22.878;2023-02-13T00:08:38;54.67;;;30.50;;
6566;SDS011;3317;43.994;22.878;2023-02-13T00:11:05;49.27;;;26.80;;
6566;SDS011;3317;43.994;22.878;2023-02-13T00:13:32;34.43;;;20.20;;
6566;SDS011;3317;43.994;22.878;2023-02-13T00:16:02;32.03;;;18.50;;
6566;SDS011;3317;43.994;22.878;2023-02-13T00:18:32;40.50;;;22.07;;
6566;SDS011;3317;43.994;22.878;2023-02-13T00:21:00;21.13;;;13.40;;
6566;SDS011;3317;43.994;22.878;2023-02-13T00:23:28;39.67;;;22.27;;
6566;SDS011;3317;43.994;22.878;2023-02-13T00:25:56;44.10;;;24.57;;
6566;SDS011;3317;43.994;22.878;2023-02-13T00:28:23;42.80;;;23.30;;
6566;SDS011;3317;43.994;22.878;2023-02-13T00:30:51;50.20;;;28.00;;
6566;SDS011;3317;43.994;22.878;2023-02-13T00:33:19;39.23;;;23.37;;
6566;SDS011;3317;43.994;22.878;2023-02-13T00:35:46;33.13;;;19.67;;
6566;SDS011;3317;43.994;22.878;2023-02-13T00:38:13;47.90;;;27.30;;
6566;SDS011;3317;43.994;22.878;2023-02-13T00:40:40;45.70;;;27.20;;
6566;SDS011;3317;43.994;22.878;2023-02-13T00:43:06;45.30;;;28.40;;
6566;SDS011;3317;43.994;22.878;2023-02-13T00:45:33;57.17;;;30.80;;
6566;SDS011;3317;43.994;22.878;2023-02-13T00:48:00;54.33;;;29.87;;
6566;SDS011;3317;43.994;22.878;2023-02-13T00:50:28;46.73;;;28.03;;
6566;SDS011;3317;43.994;22.878;2023-02-13T00:52:56;58.87;;;35.27;;
6566;SDS011;3317;43.994;22.878;2023-02-13T00:55:22;46.17;;;27.57;;
6566;SDS011;3317;43.994;22.878;2023-02-13T00:57:49;58.37;;;32.70;;
6566;SDS011;3317;43.994;22.878;2023-02-13T01:00:16;53.80;;;30.60;;
6566;SDS011;3317;43.994;22.878;2023-02-13T01:02:44;62.80;;;36.07;;
6566;SDS011;3317;43.994;22.878;2023-02-13T01:05:12;54.60;;;31.83;;
6566;SDS011;3317;43.994;22.878;2023-02-13T01:07:40;65.17;;;36.03;;
6566;SDS011;3317;43.994;22.878;2023-02-13T01:10:07;56.07;;;32.63;;
6566;SDS011;3317;43.994;22.878;2023-02-13T01:12:34;56.10;;;33.07;;
6566;SDS011;3317;43.994;22.878;2023-02-13T01:15:01;52.63;;;31.33;;
6566;SDS011;3317;43.994;22.878;2023-02-13T01:17:28;53.17;;;30.50;;
6566;SDS011;3317;43.994;22.878;2023-02-13T01:19:56;33.97;;;21.00;;
6566;SDS011;3317;43.994;22.878;2023-02-13T01:22:22;42.00;;;24.73;;
6566;SDS011;3317;43.994;22.878;2023-02-13T01:24:51;42.80;;;24.30;;
6566;SDS011;3317;43.994;22.878;2023-02-13T01:27:18;59.87;;;34.13;;
6566;SDS011;3317;43.994;22.878;2023-02-13T01:29:44;50.27;;;31.07;;
6566;SDS011;3317;43.994;22.878;2023-02-13T01:32:11;60.70;;;36.60;;
6566;SDS011;3317;43.994;22.878;2023-02-13T01:34:38;60.27;;;34.50;;
6566;SDS011;3317;43.994;22.878;2023-02-13T01:37:05;58.67;;;33.87;;
6566;SDS011;3317;43.994;22.878;2023-02-13T01:39:32;38.87;;;23.73;;
6566;SDS011;3317;43.994;22.878;2023-02-13T01:42:00;45.27;;;26.63;;
6566;SDS011;3317;43.994;22.878;2023-02-13T01:44:47;51.37;;;31.27;;
6566;SDS011;3317;43.994;22.878;2023-02-13T01:47:17;55.17;;;32.20;;
6566;SDS011;3317;43.994;22.878;2023-02-13T01:49:49;53.70;;;30.90;;
6566;SDS011;3317;43.994;22.878;2023-02-13T01:52:24;57.53;;;32.57;;
6566;SDS011;3317;43.994;22.878;2023-02-13T01:54:51;51.93;;;29.93;;
6566;SDS011;3317;43.994;22.878;2023-02-13T01:57:20;59.30;;;33.27;;
6566;SDS011;3317;43.994;22.878;2023-02-13T01:59:50;55.83;;;31.53;;
6566;SDS011;3317;43.994;22.878;2023-02-13T02:02:21;51.97;;;30.23;;
6566;SDS011;3317;43.994;22.878;2023-02-13T02:04:48;53.33;;;30.60;;
6566;SDS011;3317;43.994;22.878;2023-02-13T02:07:17;57.93;;;31.73;;
6566;SDS011;3317;43.994;22.878;2023-02-13T02:09:46;69.63;;;36.47;;
6566;SDS011;3317;43.994;22.878;2023-02-13T02:12:17;33.93;;;20.73;;
6566;SDS011;3317;43.994;22.878;2023-02-13T02:14:51;44.90;;;25.03;;
6566;SDS011;3317;43.994;22.878;2023-02-13T02:17:20;37.77;;;21.60;;
6566;SDS011;3317;43.994;22.878;2023-02-13T02:19:51;45.53;;;25.57;;
6566;SDS011;3317;43.994;22.878;2023-02-13T02:22:36;51.33;;;27.60;;
6566;SDS011;3317;43.994;22.878;2023-02-13T02:25:28;33.27;;;18.90;;
6566;SDS011;3317;43.994;22.878;2023-02-13T02:28:30;21.70;;;13.87;;
6566;SDS011;3317;43.994;22.878;2023-02-13T02:34:30;23.47;;;15.37;;
6566;SDS011;3317;43.994;22.878;2023-02-13T02:37:10;52.23;;;28.77;;
6566;SDS011;3317;43.994;22.878;2023-02-13T02:39:46;60.03;;;31.90;;
6566;SDS011;3317;43.994;22.878;2023-02-13T02:42:24;56.07;;;31.50;;
6566;SDS011;3317;43.994;22.878;2023-02-13T02:45:00;52.50;;;30.77;;
6566;SDS011;3317;43.994;22.878;2023-02-13T02:47:36;59.37;;;32.57;;
6566;SDS011;3317;43.994;22.878;2023-02-13T02:50:31;64.40;;;34.10;;
6566;SDS011;3317;43.994;22.878;2023-02-13T02:53:20;55.83;;;31.60;;
6566;SDS011;3317;43.994;22.878;2023-02-13T02:55:57;58.47;;;31.97;;
6566;SDS011;3317;43.994;22.878;2023-02-13T02:58:30;50.67;;;27.93;;
6566;SDS011;3317;43.994;22.878;2023-02-13T03:01:20;56.87;;;32.33;;
6566;SDS011;3317;43.994;22.878;2023-02-13T03:04:11;59.23;;;32.30;;
6566;SDS011;3317;43.994;22.878;2023-02-13T03:07:02;51.93;;;29.90;;
6566;SDS011;3317;43.994;22.878;2023-02-13T03:09:34;40.33;;;23.63;;
6566;SDS011;3317;43.994;22.878;2023-02-13T03:12:23;49.93;;;27.70;;
6566;SDS011;3317;43.994;22.878;2023-02-13T03:15:12;60.00;;;32.13;;
6566;SDS011;3317;43.994;22.878;2023-02-13T03:17:39;41.07;;;24.17;;
6566;SDS011;3317;43.994;22.878;2023-02-13T03:20:44;45.90;;;26.00;;
6566;SDS011;3317;43.994;22.878;2023-02-13T03:23:34;40.97;;;22.90;;
6566;SDS011;3317;43.994;22.878;2023-02-13T03:26:22;55.57;;;29.87;;
6566;SDS011;3317;43.994;22.878;2023-02-13T03:29:11;46.73;;;26.50;;
6566;SDS011;3317;43.994;22.878;2023-02-13T03:32:05;56.40;;;31.37;;
6566;SDS011;3317;43.994;22.878;2023-02-13T03:34:41;63.30;;;33.67;;
6566;SDS011;3317;43.994;22.878;2023-02-13T03:37:37;53.60;;;31.70;;
6566;SDS011;3317;43.994;22.878;2023-02-13T03:40:23;53.20;;;30.10;;
6566;SDS011;3317;43.994;22.878;2023-02-13T03:42:57;29.90;;;18.73;;
6566;SDS011;3317;43.994;22.878;2023-02-13T03:45:31;42.77;;;25.27;;
6566;SDS011;3317;43.994;22.878;2023-02-13T03:48:23;36.13;;;20.53;;
6566;SDS011;3317;43.994;22.878;2023-02-13T03:51:11;51.80;;;29.60;;
6566;SDS011;3317;43.994;22.878;2023-02-13T03:53:43;52.70;;;28.00;;
6566;SDS011;3317;43.994;22.878;2023-02-13T03:56:13;47.73;;;27.00;;
6566;SDS011;3317;43.994;22.878;2023-02-13T03:59:01;26.97;;;16.10;;
6566;SDS011;3317;43.994;22.878;2023-02-13T04:01:45;21.77;;;14.10;;
6566;SDS011;3317;43.994;22.878;2023-02-13T04:04:34;34.43;;;20.10;;
6566;SDS011;3317;43.994;22.878;2023-02-13T04:07:07;36.20;;;20.13;;
6566;SDS011;3317;43.994;22.878;2023-02-13T04:09:54;27.70;;;17.20;;
6566;SDS011;3317;43.994;22.878;2023-02-13T04:12:25;23.77;;;14.20;;
6566;SDS011;3317;43.994;22.878;2023-02-13T04:15:00;23.20;;;14.70;;
6566;SDS011;3317;43.994;22.878;2023-02-13T04:17:30;33.87;;;20.10;;
6566;SDS011;3317;43.994;22.878;2023-02-13T04:20:01;55.73;;;30.50;;
6566;SDS011;3317;43.994;22.878;2023-02-13T04:22:30;54.40;;;30.40;;
6566;SDS011;3317;43.994;22.878;2023-02-13T04:24:58;39.07;;;22.77;;
6566;SDS011;3317;43.994;22.878;2023-02-13T04:27:26;50.90;;;26.67;;
6566;SDS011;3317;43.994;22.878;2023-02-13T04:29:53;47.57;;;26.40;;
6566;SDS011;3317;43.994;22.878;2023-02-13T04:32:20;31.30;;;19.03;;
6566;SDS011;3317;43.994;22.878;2023-02-13T04:34:47;52.87;;;29.40;;
6566;SDS011;3317;43.994;22.878;2023-02-13T04:37:14;30.10;;;18.40;;
6566;SDS011;3317;43.994;22.878;2023-02-13T04:39:41;23.40;;;14.40;;
6566;SDS011;3317;43.994;22.878;2023-02-13T04:42:09;25.13;;;15.27;;
6566;SDS011;3317;43.994;22.878;2023-02-13T04:44:36;33.17;;;19.50;;
6566;SDS011;3317;43.994;22.878;2023-02-13T04:47:04;58.00;;;29.60;;
6566;SDS011;3317;43.994;22.878;2023-02-13T04:49:31;47.03;;;27.27;;
6566;SDS011;3317;43.994;22.878;2023-02-13T04:51:58;52.80;;;29.13;;
6566;SDS011;3317;43.994;22.878;2023-02-13T04:54:25;35.40;;;20.20;;
6566;SDS011;3317;43.994;22.878;2023-02-13T04:56:51;47.23;;;27.37;;
6566;SDS011;3317;43.994;22.878;2023-02-13T04:59:20;54.00;;;28.87;;
6566;SDS011;3317;43.994;22.878;2023-02-13T05:01:47;38.93;;;21.17;;
6566;SDS011;3317;43.994;22.878;2023-02-13T05:04:14;59.67;;;31.70;;
6566;SDS011;3317;43.994;22.878;2023-02-13T05:06:41;65.07;;;34.90;;
6566;SDS011;3317;43.994;22.878;2023-02-13T05:09:08;39.73;;;21.47;;
6566;SDS011;3317;43.994;22.878;2023-02-13T05:11:35;26.70;;;15.47;;
6566;SDS011;3317;43.994;22.878;2023-02-13T05:14:02;40.67;;;23.90;;
6566;SDS011;3317;43.994;22.878;2023-02-13T05:16:30;35.77;;;21.13;;
6566;SDS011;3317;43.994;22.878;2023-02-13T05:18:58;35.80;;;21.60;;
6566;SDS011;3317;43.994;22.878;2023-02-13T05:21:25;94.33;;;41.40;;
6566;SDS011;3317;43.994;22.878;2023-02-13T05:24:20;86.33;;;40.53;;
6566;SDS011;3317;43.994;22.878;2023-02-13T05:26:47;80.27;;;37.03;;
6566;SDS011;3317;43.994;22.878;2023-02-13T05:29:14;78.83;;;39.67;;
6566;SDS011;3317;43.994;22.878;2023-02-13T05:31:46;65.10;;;33.33;;
6566;SDS011;3317;43.994;22.878;2023-02-13T05:34:13;71.87;;;35.30;;
6566;SDS011;3317;43.994;22.878;2023-02-13T05:36:41;78.23;;;38.10;;
6566;SDS011;3317;43.994;22.878;2023-02-13T05:39:08;65.90;;;34.93;;
6566;SDS011;3317;43.994;22.878;2023-02-13T05:41:34;52.00;;;29.50;;
6566;SDS011;3317;43.994;22.878;2023-02-13T05:44:01;57.30;;;30.07;;
6566;SDS011;3317;43.994;22.878;2023-02-13T05:46:29;63.00;;;36.77;;
6566;SDS011;3317;43.994;22.878;2023-02-13T05:48:57;86.30;;;45.30;;
6566;SDS011;3317;43.994;22.878;2023-02-13T05:51:24;76.53;;;39.60;;
6566;SDS011;3317;43.994;22.878;2023-02-13T05:53:51;68.60;;;37.63;;
6566;SDS011;3317;43.994;22.878;2023-02-13T05:56:18;64.57;;;36.50;;
6566;SDS011;3317;43.994;22.878;2023-02-13T05:58:45;67.27;;;36.10;;
6566;SDS011;3317;43.994;22.878;2023-02-13T06:01:12;62.30;;;34.23;;
6566;SDS011;3317;43.994;22.878;2023-02-13T06:03:39;68.60;;;36.00;;
6566;SDS011;3317;43.994;22.878;2023-02-13T06:06:07;67.13;;;37.80;;
6566;SDS011;3317;43.994;22.878;2023-02-13T06:08:34;60.90;;;32.47;;
6566;SDS011;3317;43.994;22.878;2023-02-13T06:11:01;42.60;;;25.00;;
6566;SDS011;3317;43.994;22.878;2023-02-13T06:13:29;69.40;;;37.00;;
6566;SDS011;3317;43.994;22.878;2023-02-13T06:15:56;69.40;;;36.70;;
6566;SDS011;3317;43.994;22.878;2023-02-13T06:18:23;75.77;;;39.50;;
6566;SDS011;3317;43.994;22.878;2023-02-13T06:20:50;68.83;;;36.40;;
6566;SDS011;3317;43.994;22.878;2023-02-13T06:23:18;69.30;;;36.63;;
6566;SDS011;3317;43.994;22.878;2023-02-13T06:25:45;72.20;;;36.50;;
6566;SDS011;3317;43.994;22.878;2023-02-13T06:28:12;74.00;;;38.40;;
6566;SDS011;3317;43.994;22.878;2023-02-13T06:30:39;61.93;;;32.93;;
6566;SDS011;3317;43.994;22.878;2023-02-13T06:33:06;62.87;;;34.30;;
6566;SDS011;3317;43.994;22.878;2023-02-13T06:35:33;68.00;;;37.70;;
6566;SDS011;3317;43.994;22.878;2023-02-13T06:38:00;73.80;;;39.23;;
6566;SDS011;3317;43.994;22.878;2023-02-13T06:40:28;55.40;;;31.47;;
6566;SDS011;3317;43.994;22.878;2023-02-13T06:42:55;68.30;;;38.60;;
6566;SDS011;3317;43.994;22.878;2023-02-13T06:45:22;82.67;;;43.77;;
6566;SDS011;3317;43.994;22.878;2023-02-13T06:47:49;71.20;;;39.47;;
6566;SDS011;3317;43.994;22.878;2023-02-13T06:50:16;69.37;;;39.93;;
6566;SDS011;3317;43.994;22.878;2023-02-13T06:52:47;77.73;;;43.23;;
6566;SDS011;3317;43.994;22.878;2023-02-13T06:55:15;82.93;;;44.70;;
6566;SDS011;3317;43.994;22.878;2023-02-13T06:57:44;100.30;;;50.60;;
6566;SDS011;3317;43.994;22.878;2023-02-13T07:00:12;90.67;;;50.10;;
6566;SDS011;3317;43.994;22.878;2023-02-13T07:02:41;93.50;;;49.40;;
6566;SDS011;3317;43.994;22.878;2023-02-13T07:05:09;75.43;;;42.63;;
6566;SDS011;3317;43.994;22.878;2023-02-13T07:07:37;89.37;;;44.70;;
6566;SDS011;3317;43.994;22.878;2023-02-13T07:10:06;65.10;;;36.47;;
6566;SDS011;3317;43.994;22.878;2023-02-13T07:12:34;89.70;;;49.33;;
6566;SDS011;3317;43.994;22.878;2023-02-13T07:15:03;101.70;;;54.40;;
6566;SDS011;3317;43.994;22.878;2023-02-13T07:17:32;98.00;;;52.00;;
6566;SDS011;3317;43.994;22.878;2023-02-13T07:19:59;100.63;;;52.20;;
6566;SDS011;3317;43.994;22.878;2023-02-13T07:22:26;69.03;;;38.73;;
6566;SDS011;3317;43.994;22.878;2023-02-13T07:24:53;66.33;;;37.93;;
6566;SDS011;3317;43.994;22.878;2023-02-13T07:27:20;74.93;;;42.90;;
6566;SDS011;3317;43.994;22.878;2023-02-13T07:29:47;60.57;;;33.10;;
6566;SDS011;3317;43.994;22.878;2023-02-13T07:32:15;65.60;;;37.30;;
6566;SDS011;3317;43.994;22.878;2023-02-13T07:34:42;61.53;;;36.63;;
6566;SDS011;3317;43.994;22.878;2023-02-13T07:37:09;79.37;;;43.67;;
6566;SDS011;3317;43.994;22.878;2023-02-13T07:39:36;68.90;;;37.70;;
6566;SDS011;3317;43.994;22.878;2023-02-13T07:42:03;62.80;;;36.90;;
6566;SDS011;3317;43.994;22.878;2023-02-13T07:44:30;73.80;;;40.67;;
6566;SDS011;3317;43.994;22.878;2023-02-13T07:46:57;60.60;;;35.30;;
6566;SDS011;3317;43.994;22.878;2023-02-13T07:49:26;60.77;;;33.87;;
6566;SDS011;3317;43.994;22.878;2023-02-13T07:51:54;72.00;;;40.70;;
6566;SDS011;3317;43.994;22.878;2023-02-13T07:54:22;63.27;;;36.50;;
6566;SDS011;3317;43.994;22.878;2023-02-13T07:56:49;62.80;;;37.73;;
6566;SDS011;3317;43.994;22.878;2023-02-13T07:59:16;56.00;;;33.07;;
6566;SDS011;3317;43.994;22.878;2023-02-13T08:01:43;66.20;;;38.57;;
6566;SDS011;3317;43.994;22.878;2023-02-13T08:04:10;68.77;;;38.53;;
6566;SDS011;3317;43.994;22.878;2023-02-13T08:06:39;63.90;;;36.17;;
6566;SDS011;3317;43.994;22.878;2023-02-13T08:09:06;79.80;;;45.20;;
6566;SDS011;3317;43.994;22.878;2023-02-13T08:11:51;77.23;;;44.10;;
6566;SDS011;3317;43.994;22.878;2023-02-13T08:14:18;67.47;;;38.43;;
6566;SDS011;3317;43.994;22.878;2023-02-13T08:16:46;74.03;;;41.93;;
6566;SDS011;3317;43.994;22.878;2023-02-13T08:19:13;71.30;;;40.67;;
6566;SDS011;3317;43.994;22.878;2023-02-13T08:21:41;58.10;;;33.80;;
6566;SDS011;3317;43.994;22.878;2023-02-13T08:24:08;66.97;;;38.13;;
6566;SDS011;3317;43.994;22.878;2023-02-13T08:26:35;60.10;;;33.50;;
6566;SDS011;3317;43.994;22.878;2023-02-13T08:29:02;57.13;;;31.13;;
6566;SDS011;3317;43.994;22.878;2023-02-13T08:31:30;47.17;;;23.90;;
6566;SDS011;3317;43.994;22.878;2023-02-13T08:33:57;37.27;;;21.20;;
6566;SDS011;3317;43.994;22.878;2023-02-13T08:36:24;38.90;;;21.63;;
6566;SDS011;3317;43.994;22.878;2023-02-13T08:38:53;33.70;;;17.30;;
6566;SDS011;3317;43.994;22.878;2023-02-13T08:41:20;40.73;;;20.57;;
6566;SDS011;3317;43.994;22.878;2023-02-13T08:43:47;34.43;;;18.30;;
6566;SDS011;3317;43.994;22.878;2023-02-13T08:46:14;30.07;;;17.90;;
6566;SDS011;3317;43.994;22.878;2023-02-13T08:48:41;28.63;;;17.57;;
6566;SDS011;3317;43.994;22.878;2023-02-13T08:51:09;33.37;;;18.20;;
6566;SDS011;3317;43.994;22.878;2023-02-13T08:53:37;30.67;;;18.53;;
6566;SDS011;3317;43.994;22.878;2023-02-13T08:56:06;31.10;;;16.57;;
6566;SDS011;3317;43.994;22.878;2023-02-13T08:58:33;26.47;;;16.20;;
6566;SDS011;3317;43.994;22.878;2023-02-13T09:01:03;31.00;;;17.77;;
6566;SDS011;3317;43.994;22.878;2023-02-13T09:03:31;29.80;;;16.20;;
6566;SDS011;3317;43.994;22.878;2023-02-13T09:05:58;30.53;;;17.13;;
6566;SDS011;3317;43.994;22.878;2023-02-13T09:08:26;27.57;;;14.20;;
6566;SDS011;3317;43.994;22.878;2023-02-13T09:10:56;27.90;;;15.50;;
6566;SDS011;3317;43.994;22.878;2023-02-13T09:13:27;29.10;;;16.30;;
6566;SDS011;3317;43.994;22.878;2023-02-13T09:15:56;21.93;;;13.33;;
6566;SDS011;3317;43.994;22.878;2023-02-13T09:18:25;23.47;;;15.10;;
6566;SDS011;3317;43.994;22.878;2023-02-13T09:20:56;25.87;;;15.23;;
6566;SDS011;3317;43.994;22.878;2023-02-13T09:23:24;24.53;;;14.27;;
6566;SDS011;3317;43.994;22.878;2023-02-13T09:25:51;28.33;;;15.10;;
6566;SDS011;3317;43.994;22.878;2023-02-13T09:28:18;26.90;;;15.60;;
6566;SDS011;3317;43.994;22.878;2023-02-13T09:30:46;28.43;;;16.30;;
6566;SDS011;3317;43.994;22.878;2023-02-13T09:33:14;27.73;;;14.53;;
6566;SDS011;3317;43.994;22.878;2023-02-13T09:35:41;30.33;;;14.53;;
6566;SDS011;3317;43.994;22.878;2023-02-13T09:38:09;24.57;;;14.37;;
6566;SDS011;3317;43.994;22.878;2023-02-13T09:40:40;27.40;;;15.00;;
6566;SDS011;3317;43.994;22.878;2023-02-13T09:43:12;21.83;;;13.47;;
6566;SDS011;3317;43.994;22.878;2023-02-13T09:45:43;23.13;;;13.07;;
6566;SDS011;3317;43.994;22.878;2023-02-13T09:48:17;28.20;;;14.37;;
6566;SDS011;3317;43.994;22.878;2023-02-13T09:50:48;23.97;;;14.30;;
6566;SDS011;3317;43.994;22.878;2023-02-13T09:53:16;28.33;;;16.23;;
6566;SDS011;3317;43.994;22.878;2023-02-13T09:55:48;29.63;;;15.40;;
6566;SDS011;3317;43.994;22.878;2023-02-13T09:58:27;24.87;;;13.67;;
6566;SDS011;3317;43.994;22.878;2023-02-13T10:01:05;38.13;;;15.50;;
6566;SDS011;3317;43.994;22.878;2023-02-13T10:03:45;30.20;;;16.27;;
6566;SDS011;3317;43.994;22.878;2023-02-13T10:06:18;31.03;;;15.00;;
6566;SDS011;3317;43.994;22.878;2023-02-13T10:09:00;84.90;;;38.90;;
6566;SDS011;3317;43.994;22.878;2023-02-13T10:11:49;26.33;;;14.57;;
6566;SDS011;3317;43.994;22.878;2023-02-13T10:14:36;29.73;;;14.77;;
6566;SDS011;3317;43.994;22.878;2023-02-13T10:17:10;23.03;;;13.60;;
6566;SDS011;3317;43.994;22.878;2023-02-13T10:19:44;25.47;;;14.10;;
6566;SDS011;3317;43.994;22.878;2023-02-13T10:22:16;25.13;;;14.50;;
6566;SDS011;3317;43.994;22.878;2023-02-13T10:24:46;21.10;;;13.97;;
6566;SDS011;3317;43.994;22.878;2023-02-13T10:27:18;24.63;;;14.20;;
6566;SDS011;3317;43.994;22.878;2023-02-13T10:29:50;22.50;;;14.40;;
6566;SDS011;3317;43.994;22.878;2023-02-13T10:32:31;28.63;;;13.47;;
6566;SDS011;3317;43.994;22.878;2023-02-13T10:35:09;22.27;;;14.17;;
6566;SDS011;3317;43.994;22.878;2023-02-13T10:37:44;20.67;;;12.90;;
6566;SDS011;3317;43.994;22.878;2023-02-13T10:40:15;20.43;;;13.23;;
6566;SDS011;3317;43.994;22.878;2023-02-13T10:42:43;23.60;;;13.70;;
6566;SDS011;3317;43.994;22.878;2023-02-13T10:45:21;22.43;;;15.10;;
6566;SDS011;3317;43.994;22.878;2023-02-13T10:48:11;23.80;;;13.87;;
6566;SDS011;3317;43.994;22.878;2023-02-13T10:50:57;24.47;;;14.60;;
6566;SDS011;3317;43.994;22.878;2023-02-13T10:53:31;26.90;;;15.73;;
6566;SDS011;3317;43.994;22.878;2023-02-13T10:56:18;23.33;;;14.00;;
6566;SDS011;3317;43.994;22.878;2023-02-13T10:58:57;29.40;;;17.13;;
6566;SDS011;3317;43.994;22.878;2023-02-13T11:01:31;40.23;;;21.50;;
6566;SDS011;3317;43.994;22.878;2023-02-13T11:04:06;30.17;;;17.47;;
6566;SDS011;3317;43.994;22.878;2023-02-13T11:06:37;30.33;;;16.60;;
6566;SDS011;3317;43.994;22.878;2023-02-13T11:09:07;26.43;;;14.60;;
6566;SDS011;3317;43.994;22.878;2023-02-13T11:11:37;36.27;;;19.37;;
6566;SDS011;3317;43.994;22.878;2023-02-13T11:14:07;26.20;;;15.97;;
6566;SDS011;3317;43.994;22.878;2023-02-13T11:16:39;23.50;;;14.70;;
6566;SDS011;3317;43.994;22.878;2023-02-13T11:19:15;22.47;;;13.40;;
6566;SDS011;3317;43.994;22.878;2023-02-13T11:21:49;21.20;;;14.40;;
6566;SDS011;3317;43.994;22.878;2023-02-13T11:24:20;23.80;;;14.13;;
6566;SDS011;3317;43.994;22.878;2023-02-13T11:26:52;23.37;;;14.07;;
6566;SDS011;3317;43.994;22.878;2023-02-13T11:29:24;25.33;;;14.50;;
6566;SDS011;3317;43.994;22.878;2023-02-13T11:32:04;22.83;;;13.37;;
6566;SDS011;3317;43.994;22.878;2023-02-13T11:34:43;27.80;;;14.40;;
6566;SDS011;3317;43.994;22.878;2023-02-13T11:37:17;26.70;;;16.40;;
6566;SDS011;3317;43.994;22.878;2023-02-13T11:39:46;18.80;;;11.83;;
6566;SDS011;3317;43.994;22.878;2023-02-13T11:42:14;16.47;;;10.63;;
6566;SDS011;3317;43.994;22.878;2023-02-13T11:44:47;15.40;;;9.10;;
6566;SDS011;3317;43.994;22.878;2023-02-13T11:47:17;14.80;;;9.40;;
6566;SDS011;3317;43.994;22.878;2023-02-13T11:49:57;15.20;;;8.83;;
6566;SDS011;3317;43.994;22.878;2023-02-13T11:52:27;12.97;;;8.60;;
6566;SDS011;3317;43.994;22.878;2023-02-13T11:54:56;16.73;;;10.10;;
6566;SDS011;3317;43.994;22.878;2023-02-13T11:57:27;14.93;;;8.27;;
6566;SDS011;3317;43.994;22.878;2023-02-13T11:59:56;13.17;;;6.90;;
6566;SDS011;3317;43.994;22.878;2023-02-13T12:02:24;18.00;;;8.17;;
6566;SDS011;3317;43.994;22.878;2023-02-13T12:04:53;15.53;;;8.37;;
6566;SDS011;3317;43.994;22.878;2023-02-13T12:07:22;10.30;;;7.13;;
6566;SDS011;3317;43.994;22.878;2023-02-13T12:09:53;11.43;;;7.37;;
6566;SDS011;3317;43.994;22.878;2023-02-13T12:12:27;14.00;;;8.53;;
6566;SDS011;3317;43.994;22.878;2023-02-13T12:15:01;11.10;;;7.07;;
6566;SDS011;3317;43.994;22.878;2023-02-13T12:17:39;12.37;;;7.37;;
6566;SDS011;3317;43.994;22.878;2023-02-13T12:20:11;17.53;;;8.10;;
6566;SDS011;3317;43.994;22.878;2023-02-13T12:22:41;13.60;;;6.90;;
6566;SDS011;3317;43.994;22.878;2023-02-13T12:25:26;12.63;;;6.73;;
6566;SDS011;3317;43.994;22.878;2023-02-13T12:28:11;11.90;;;7.23;;
6566;SDS011;3317;43.994;22.878;2023-02-13T12:33:37;9.23;;;6.10;;
6566;SDS011;3317;43.994;22.878;2023-02-13T12:36:20;13.63;;;6.27;;
6566;SDS011;3317;43.994;22.878;2023-02-13T12:39:02;11.63;;;5.77;;
6566;SDS011;3317;43.994;22.878;2023-02-13T12:41:44;13.23;;;6.73;;
6566;SDS011;3317;43.994;22.878;2023-02-13T12:47:35;16.27;;;6.77;;
6566;SDS011;3317;43.994;22.878;2023-02-13T12:50:30;14.60;;;6.60;;
6566;SDS011;3317;43.994;22.878;2023-02-13T12:53:13;13.30;;;7.47;;
6566;SDS011;3317;43.994;22.878;2023-02-13T12:56:02;14.83;;;6.23;;
6566;SDS011;3317;43.994;22.878;2023-02-13T12:58:59;22.53;;;7.23;;
6566;SDS011;3317;43.994;22.878;2023-02-13T13:01:36;11.87;;;7.47;;
6566;SDS011;3317;43.994;22.878;2023-02-13T13:04:40;11.83;;;6.50;;
6566;SDS011;3317;43.994;22.878;2023-02-13T13:07:18;14.37;;;8.00;;
6566;SDS011;3317;43.994;22.878;2023-02-13T13:10:03;13.00;;;6.87;;
6566;SDS011;3317;43.994;22.878;2023-02-13T13:12:49;17.37;;;7.97;;
6566;SDS011;3317;43.994;22.878;2023-02-13T13:15:26;13.43;;;7.17;;
6566;SDS011;3317;43.994;22.878;2023-02-13T13:18:10;14.37;;;8.20;;
6566;SDS011;3317;43.994;22.878;2023-02-13T13:20:57;12.80;;;6.97;;
6566;SDS011;3317;43.994;22.878;2023-02-13T13:23:33;10.67;;;6.93;;
6566;SDS011;3317;43.994;22.878;2023-02-13T13:26:09;12.57;;;6.60;;
6566;SDS011;3317;43.994;22.878;2023-02-13T13:28:41;11.67;;;7.23;;
6566;SDS011;3317;43.994;22.878;2023-02-13T13:31:12;12.23;;;7.80;;
6566;SDS011;3317;43.994;22.878;2023-02-13T13:33:41;15.40;;;7.70;;
6566;SDS011;3317;43.994;22.878;2023-02-13T13:36:11;12.00;;;6.93;;
6566;SDS011;3317;43.994;22.878;2023-02-13T13:38:49;12.43;;;6.70;;
6566;SDS011;3317;43.994;22.878;2023-02-13T13:41:25;13.77;;;9.10;;
6566;SDS011;3317;43.994;22.878;2023-02-13T13:44:05;16.23;;;9.63;;
6566;SDS011;3317;43.994;22.878;2023-02-13T13:46:52;24.37;;;9.27;;
6566;SDS011;3317;43.994;22.878;2023-02-13T13:49:26;15.80;;;8.30;;
6566;SDS011;3317;43.994;22.878;2023-02-13T13:52:20;10.67;;;6.77;;
6566;SDS011;3317;43.994;22.878;2023-02-13T13:54:49;17.60;;;8.30;;
6566;SDS011;3317;43.994;22.878;2023-02-13T13:57:20;13.63;;;7.73;;
6566;SDS011;3317;43.994;22.878;2023-02-13T13:59:54;11.57;;;7.33;;
6566;SDS011;3317;43.994;22.878;2023-02-13T14:06:00;15.93;;;7.70;;
6566;SDS011;3317;43.994;22.878;2023-02-13T14:11:35;9.43;;;6.53;;
6566;SDS011;3317;43.994;22.878;2023-02-13T14:20:39;15.70;;;7.77;;
6566;SDS011;3317;43.994;22.878;2023-02-13T14:23:22;13.00;;;8.30;;
6566;SDS011;3317;43.994;22.878;2023-02-13T14:26:18;15.03;;;8.70;;
6566;SDS011;3317;43.994;22.878;2023-02-13T14:29:20;16.20;;;9.40;;
6566;SDS011;3317;43.994;22.878;2023-02-13T14:32:15;18.80;;;10.10;;
6566;SDS011;3317;43.994;22.878;2023-02-13T14:34:52;17.77;;;9.83;;
6566;SDS011;3317;43.994;22.878;2023-02-13T14:37:26;13.97;;;9.60;;
6566;SDS011;3317;43.994;22.878;2023-02-13T14:43:24;27.00;;;15.73;;
6566;SDS011;3317;43.994;22.878;2023-02-13T14:45:55;19.23;;;12.13;;
6566;SDS011;3317;43.994;22.878;2023-02-13T14:48:27;28.70;;;12.87;;
6566;SDS011;3317;43.994;22.878;2023-02-13T14:51:01;19.13;;;11.80;;
6566;SDS011;3317;43.994;22.878;2023-02-13T14:53:32;25.07;;;11.07;;
6566;SDS011;3317;43.994;22.878;2023-02-13T14:56:07;18.60;;;11.33;;
6566;SDS011;3317;43.994;22.878;2023-02-13T14:58:43;20.60;;;11.00;;
6566;SDS011;3317;43.994;22.878;2023-02-13T15:01:17;24.23;;;11.50;;
6566;SDS011;3317;43.994;22.878;2023-02-13T15:03:50;25.13;;;10.80;;
6566;SDS011;3317;43.994;22.878;2023-02-13T15:06:25;21.33;;;10.70;;
6566;SDS011;3317;43.994;22.878;2023-02-13T15:08:57;25.10;;;12.33;;
6566;SDS011;3317;43.994;22.878;2023-02-13T15:11:34;19.83;;;11.60;;
6566;SDS011;3317;43.994;22.878;2023-02-13T15:14:15;23.40;;;12.00;;
6566;SDS011;3317;43.994;22.878;2023-02-13T15:16:44;16.47;;;11.13;;
6566;SDS011;3317;43.994;22.878;2023-02-13T15:19:13;22.60;;;12.80;;
6566;SDS011;3317;43.994;22.878;2023-02-13T15:21:45;25.87;;;14.80;;
6566;SDS011;3317;43.994;22.878;2023-02-13T15:24:16;23.50;;;12.40;;
6566;SDS011;3317;43.994;22.878;2023-02-13T15:26:48;21.17;;;13.30;;
6566;SDS011;3317;43.994;22.878;2023-02-13T15:29:18;26.50;;;16.40;;
6566;SDS011;3317;43.994;22.878;2023-02-13T15:31:45;33.67;;;17.77;;
6566;SDS011;3317;43.994;22.878;2023-02-13T15:34:19;34.03;;;20.63;;